Time;durP1;ratioP1;P1;durP2;ratioP2;P2;SDS_P1;SDS_P2;PMS_P1;PMS_P2;Temp;Humidity;BMP_temperature;BMP_pressure;BME280_temperature;BME280_humidity;BME280_pressure;Samples;Min_cycle;Max_cycle;Signal;HPM_P1;HPM_P2
2023/01/30 00:00:23;;;;;;;26.47;15.60;;;;;;;;;;5044494;28;20040;-75
2023/01/30 00:02:49;;;;;;;30.87;16.43;;;;;;;;;;5045945;28;20052;-75
2023/01/30 00:05:15;;;;;;;28.63;16.83;;;;;;;;;;5025857;28;20063;-74
2023/01/30 00:07:41;;;;;;;27.20;16.30;;;;;;;;;;5042183;28;20042;-76
2023/01/30 00:10:10;;;;;;;27.40;15.53;;;;;;;;;;5029408;28;20029;-77
2023/01/30 00:12:37;;;;;;;27.43;15.17;;;;;;;;;;5042828;28;20140;-76
2023/01/30 00:15:03;;;;;;;23.97;14.97;;;;;;;;;;5040990;28;20112;-75
2023/01/30 00:17:31;;;;;;;26.73;15.73;;;;;;;;;;5024440;28;20056;-76
2023/01/30 00:19:57;;;;;;;31.80;15.90;;;;;;;;;;5043820;28;20473;-76
2023/01/30 00:22:26;;;;;;;30.83;16.83;;;;;;;;;;5040145;28;20044;-75
2023/01/30 00:24:52;;;;;;;31.20;16.40;;;;;;;;;;5042627;28;20362;-75
2023/01/30 00:27:18;;;;;;;27.10;16.07;;;;;;;;;;5028490;28;20029;-76
2023/01/30 00:29:44;;;;;;;26.67;16.77;;;;;;;;;;5026865;28;20091;-76
2023/01/30 00:32:10;;;;;;;27.47;16.47;;;;;;;;;;5023673;28;20099;-75
2023/01/30 00:34:36;;;;;;;29.80;16.10;;;;;;;;;;5028610;28;20045;-76
2023/01/30 00:37:02;;;;;;;29.27;15.83;;;;;;;;;;5024298;28;20057;-76
2023/01/30 00:39:28;;;;;;;28.90;16.40;;;;;;;;;;5039377;28;20045;-76
2023/01/30 00:47:25;;;;;;;32.83;17.20;;;;;;;;;;5025622;28;20044;-76
2023/01/30 00:49:51;;;;;;;31.23;17.03;;;;;;;;;;5042473;28;20022;-76
2023/01/30 00:52:17;;;;;;;31.23;16.47;;;;;;;;;;5044238;28;20030;-75
2023/01/30 00:54:43;;;;;;;31.27;17.37;;;;;;;;;;5045242;28;20064;-76
2023/01/30 00:57:09;;;;;;;33.87;19.03;;;;;;;;;;5029102;28;20450;-76
2023/01/30 00:59:35;;;;;;;31.70;17.77;;;;;;;;;;5045195;28;20034;-76
2023/01/30 01:02:01;;;;;;;31.00;17.83;;;;;;;;;;5030272;28;20108;-76
2023/01/30 01:04:27;;;;;;;34.60;18.27;;;;;;;;;;5045705;28;20120;-76
2023/01/30 01:06:53;;;;;;;30.50;17.57;;;;;;;;;;5046603;28;20113;-76
2023/01/30 01:09:19;;;;;;;28.93;16.67;;;;;;;;;;5048026;28;20530;-74
2023/01/30 01:11:45;;;;;;;35.10;18.43;;;;;;;;;;5043789;28;20034;-75
2023/01/30 01:14:11;;;;;;;32.80;18.20;;;;;;;;;;5044614;28;20446;-76
2023/01/30 01:16:39;;;;;;;33.93;18.43;;;;;;;;;;5044611;28;20037;-76
2023/01/30 01:19:05;;;;;;;29.93;17.17;;;;;;;;;;5045465;28;20040;-76
2023/01/30 01:21:31;;;;;;;27.70;15.93;;;;;;;;;;5028824;28;20049;-75
2023/01/30 01:23:58;;;;;;;34.93;19.10;;;;;;;;;;5044463;28;21784;-76
2023/01/30 01:26:24;;;;;;;31.63;17.83;;;;;;;;;;5044184;28;20132;-76
2023/01/30 01:28:53;;;;;;;30.43;18.67;;;;;;;;;;5028855;28;20037;-76
2023/01/30 01:31:19;;;;;;;29.50;17.30;;;;;;;;;;5044264;28;20857;-76
2023/01/30 01:33:46;;;;;;;30.93;17.10;;;;;;;;;;5029324;28;20045;-76
2023/01/30 01:36:12;;;;;;;33.93;19.20;;;;;;;;;;5045063;28;20037;-75
2023/01/30 01:38:38;;;;;;;38.40;20.00;;;;;;;;;;5043355;28;20059;-76
2023/01/30 01:41:05;;;;;;;36.97;18.93;;;;;;;;;;5026385;28;20092;-75
2023/01/30 01:43:49;;;;;;;32.47;18.13;;;;;;;;;;5027447;28;20926;-76
2023/01/30 01:46:21;;;;;;;43.67;18.73;;;;;;;;;;5045655;28;20033;-74
2023/01/30 01:48:50;;;;;;;30.45;17.33;;;;;;;;;;5030403;28;20052;-76
2023/01/30 01:51:36;;;;;;;36.17;17.13;;;;;;;;;;5030302;28;20025;-75
2023/01/30 01:54:14;;;;;;;33.83;16.87;;;;;;;;;;5028528;28;20044;-75
2023/01/30 01:56:42;;;;;;;27.13;15.83;;;;;;;;;;5046061;28;20022;-76
2023/01/30 01:59:11;;;;;;;36.00;16.83;;;;;;;;;;5045173;28;20036;-76
2023/01/30 02:01:37;;;;;;;31.57;16.50;;;;;;;;;;5044737;28;20033;-77
2023/01/30 02:04:04;;;;;;;30.97;18.00;;;;;;;;;;5042405;28;20048;-76
2023/01/30 02:06:30;;;;;;;36.63;18.37;;;;;;;;;;5045690;28;20037;-75
2023/01/30 02:09:03;;;;;;;30.27;16.67;;;;;;;;;;5029652;28;20044;-75
2023/01/30 02:11:43;;;;;;;28.33;16.03;;;;;;;;;;5045454;28;20493;-76
2023/01/30 02:14:10;;;;;;;31.70;16.43;;;;;;;;;;5042543;28;20396;-76
2023/01/30 02:16:38;;;;;;;30.27;17.93;;;;;;;;;;5032293;28;20097;-76
2023/01/30 02:19:15;;;;;;;31.60;16.87;;;;;;;;;;5042890;28;20355;-76
2023/01/30 02:21:44;;;;;;;26.90;16.23;;;;;;;;;;5045625;28;20033;-76
2023/01/30 02:24:10;;;;;;;28.93;15.33;;;;;;;;;;5047381;28;20033;-76
2023/01/30 02:26:55;;;;;;;33.87;17.23;;;;;;;;;;5042467;28;20652;-76
2023/01/30 02:29:24;;;;;;;28.10;15.73;;;;;;;;;;5029759;28;20026;-76
2023/01/30 02:31:50;;;;;;;34.90;17.07;;;;;;;;;;5043614;28;20059;-76
2023/01/30 02:34:23;;;;;;;29.13;17.37;;;;;;;;;;5027009;28;20142;-76
2023/01/30 02:37:04;;;;;;;21.90;13.07;;;;;;;;;;5043203;28;20174;-75
2023/01/30 02:39:36;;;;;;;34.27;16.87;;;;;;;;;;5044507;28;20038;-76
2023/01/30 02:42:02;;;;;;;31.33;17.33;;;;;;;;;;5031460;28;20049;-76
2023/01/30 02:44:37;;;;;;;30.97;17.50;;;;;;;;;;5042827;28;20362;-76
2023/01/30 02:47:07;;;;;;;30.67;17.67;;;;;;;;;;5035798;28;20021;-76
2023/01/30 02:49:38;;;;;;;31.83;17.20;;;;;;;;;;5036103;28;20090;-76
2023/01/30 02:52:05;;;;;;;31.40;17.33;;;;;;;;;;5035569;28;20026;-76
2023/01/30 02:54:31;;;;;;;33.90;19.03;;;;;;;;;;5035818;28;20032;-76
2023/01/30 02:56:58;;;;;;;30.90;17.23;;;;;;;;;;5052246;28;20039;-76
2023/01/30 02:59:32;;;;;;;34.57;17.07;;;;;;;;;;5046600;28;20029;-76
2023/01/30 03:02:07;;;;;;;37.20;19.80;;;;;;;;;;5041129;28;20047;-76
2023/01/30 03:04:39;;;;;;;31.83;18.20;;;;;;;;;;5035059;28;20029;-76
2023/01/30 03:07:08;;;;;;;34.28;18.08;;;;;;;;;;5051091;28;20049;-76
2023/01/30 03:09:44;;;;;;;33.37;18.43;;;;;;;;;;5061101;28;20047;-76
2023/01/30 03:12:10;;;;;;;32.67;17.43;;;;;;;;;;5042415;28;20032;-76
2023/01/30 03:14:47;;;;;;;35.40;17.33;;;;;;;;;;5035789;28;20029;-76
2023/01/30 03:17:15;;;;;;;36.73;18.13;;;;;;;;;;5035524;28;20061;-76
2023/01/30 03:19:43;;;;;;;32.20;16.97;;;;;;;;;;5035180;28;20090;-76
2023/01/30 03:22:09;;;;;;;32.27;18.03;;;;;;;;;;5035032;28;20464;-77
2023/01/30 03:24:35;;;;;;;35.90;18.87;;;;;;;;;;5051815;28;20029;-76
2023/01/30 03:27:06;;;;;;;29.50;16.53;;;;;;;;;;5035745;28;20413;-76
2023/01/30 03:29:34;;;;;;;33.03;17.77;;;;;;;;;;5034988;28;20025;-76
2023/01/30 03:32:00;;;;;;;33.07;17.60;;;;;;;;;;5035891;28;20026;-76
2023/01/30 03:34:26;;;;;;;31.37;16.73;;;;;;;;;;5050374;28;20424;-76
2023/01/30 03:36:52;;;;;;;32.30;16.40;;;;;;;;;;5042327;28;20032;-76
2023/01/30 03:39:18;;;;;;;33.77;18.87;;;;;;;;;;5054941;28;20029;-76
2023/01/30 03:41:45;;;;;;;34.00;17.87;;;;;;;;;;5040148;28;20041;-76
2023/01/30 03:44:11;;;;;;;31.47;17.57;;;;;;;;;;5034985;28;20038;-76
2023/01/30 03:46:37;;;;;;;30.77;16.13;;;;;;;;;;5034473;28;20033;-76
2023/01/30 03:49:03;;;;;;;24.30;14.47;;;;;;;;;;5035279;28;20040;-76
2023/01/30 03:51:29;;;;;;;28.37;16.40;;;;;;;;;;5034530;28;20104;-76
2023/01/30 03:53:55;;;;;;;29.87;17.37;;;;;;;;;;5035728;28;20025;-76
2023/01/30 03:56:21;;;;;;;29.33;15.90;;;;;;;;;;5051240;28;20064;-75
2023/01/30 03:58:46;;;;;;;29.77;15.67;;;5.20;99.90;;;;;;5035519;28;20108;-76
2023/01/30 04:01:12;;;;;;;25.80;14.53;;;5.20;99.90;;;;;;5051183;28;20033;-76
2023/01/30 04:03:38;;;;;;;26.00;16.10;;;;;;;;;;5052751;28;20124;-77
2023/01/30 04:06:04;;;;;;;25.47;15.13;;;;;;;;;;5045837;28;20029;-76
2023/01/30 04:08:30;;;;;;;28.07;16.03;;;;;;;;;;5045882;28;20022;-76
2023/01/30 04:10:56;;;;;;;27.37;15.33;;;;;;;;;;5038004;28;20083;-77
2023/01/30 04:13:22;;;;;;;28.93;14.20;;;;;;;;;;5054075;28;20619;-76
2023/01/30 04:15:48;;;;;;;29.33;16.13;;;;;;;;;;5037125;28;20025;-76
2023/01/30 04:18:14;;;;;;;25.97;14.93;;;;;;;;;;5032076;28;20037;-74
2023/01/30 04:20:40;;;;;;;28.73;15.93;;;;;;;;;;5046604;28;20045;-76
2023/01/30 04:23:06;;;;;;;25.03;14.33;;;;;;;;;;5041991;28;20033;-76
2023/01/30 04:25:32;;;;;;;29.57;15.00;;;;;;;;;;5041296;28;20113;-75
2023/01/30 04:27:58;;;;;;;20.43;12.10;;;;;;;;;;5040176;28;21759;-76
2023/01/30 04:30:26;;;;;;;24.57;14.53;;;5.30;99.90;;;;;;5025726;28;20041;-76
2023/01/30 04:32:52;;;;;;;26.97;15.63;;;;;;;;;;5027312;28;20025;-76
2023/01/30 04:35:20;;;;;;;28.90;15.90;;;;;;;;;;5045227;28;20026;-76
2023/01/30 04:37:46;;;;;;;33.67;17.00;;;;;;;;;;5027585;28;20033;-77
2023/01/30 04:40:12;;;;;;;31.30;16.40;;;;;;;;;;5024734;28;20037;-76
2023/01/30 04:42:45;;;;;;;25.10;14.97;;;;;;;;;;5036756;28;20046;-75
2023/01/30 04:45:11;;;;;;;25.73;14.60;;;;;;;;;;5040634;28;20111;-76
2023/01/30 04:47:37;;;;;;;27.47;15.27;;;;;;;;;;5029803;28;20052;-76
2023/01/30 04:50:03;;;;;;;29.57;16.23;;;;;;;;;;5042469;28;20029;-75
2023/01/30 04:52:29;;;;;;;28.37;16.23;;;;;;;;;;5027354;28;20022;-76
2023/01/30 04:54:57;;;;;;;30.67;16.63;;;;;;;;;;5043810;28;20032;-76
2023/01/30 04:57:23;;;;;;;30.83;17.20;;;;;;;;;;5044081;28;20053;-75
2023/01/30 04:59:52;;;;;;;29.37;15.90;;;;;;;;;;5031332;28;20034;-76
2023/01/30 05:02:18;;;;;;;32.53;15.50;;;;;;;;;;5024938;28;20903;-75
2023/01/30 05:04:43;;;;;;;35.07;18.80;;;5.20;99.90;;;;;;5043974;28;20041;-76
2023/01/30 05:07:10;;;;;;;33.63;17.80;;;5.20;99.90;;;;;;5023269;28;20030;-76
2023/01/30 05:09:36;;;;;;;31.13;18.63;;;;;;;;;;5028552;28;20508;-76
2023/01/30 05:12:02;;;;;;;32.27;18.40;;;;;;;;;;5025345;28;20029;-76
2023/01/30 05:14:28;;;;;;;36.20;19.50;;;;;;;;;;5025925;28;20017;-76
2023/01/30 05:16:54;;;;;;;31.63;17.60;;;;;;;;;;5024603;28;20430;-76
2023/01/30 05:19:20;;;;;;;31.70;17.97;;;;;;;;;;5025128;28;20025;-76
2023/01/30 05:21:46;;;;;;;36.07;20.63;;;;;;;;;;5040574;28;20466;-76
2023/01/30 05:24:12;;;;;;;33.17;17.37;;;;;;;;;;5042140;28;20063;-76
2023/01/30 05:26:40;;;;;;;34.13;18.13;;;;;;;;;;5040850;28;20025;-76
2023/01/30 05:29:10;;;;;;;33.63;17.40;;;;;;;;;;5040934;28;20037;-76
2023/01/30 05:31:37;;;;;;;34.37;18.50;;;;;;;;;;5043729;28;20045;-76
2023/01/30 05:34:03;;;;;;;40.70;20.20;;;;;;;;;;5042595;28;20108;-75
2023/01/30 05:36:29;;;;;;;34.03;19.60;;;;;;;;;;5043999;28;20156;-76
2023/01/30 05:38:55;;;;;;;31.40;18.27;;;;;;;;;;5045554;28;20112;-75
2023/01/30 05:41:23;;;;;;;31.23;16.67;;;;;;;;;;5045186;28;20030;-76
2023/01/30 05:43:52;;;;;;;33.63;16.87;;;;;;;;;;5046889;28;20067;-76
2023/01/30 05:46:19;;;;;;;37.93;18.10;;;;;;;;;;5026931;28;20030;-76
2023/01/30 05:48:45;;;;;;;30.50;16.43;;;;;;;;;;5044400;28;20403;-77
2023/01/30 05:51:15;;;;;;;34.40;17.83;;;;;;;;;;5039809;28;20335;-76
2023/01/30 05:53:41;;;;;;;32.17;16.30;;;;;;;;;;5046045;28;20025;-76
2023/01/30 05:56:08;;;;;;;28.93;16.80;;;;;;;;;;5027595;28;20091;-76
2023/01/30 05:58:34;;;;;;;30.27;17.40;;;;;;;;;;5027123;28;20033;-76
2023/01/30 06:01:01;;;;;;;28.73;17.07;;;;;;;;;;5048056;28;20025;-75
2023/01/30 06:03:27;;;;;;;36.07;17.77;;;;;;;;;;5046264;28;20047;-76
2023/01/30 06:05:53;;;;;;;31.80;17.40;;;;;;;;;;5043089;28;20030;-76
2023/01/30 06:08:19;;;;;;;33.90;18.60;;;;;;;;;;5029496;28;20038;-76
2023/01/30 06:10:47;;;;;;;26.80;17.13;;;;;;;;;;5046952;28;20041;-75
2023/01/30 06:13:13;;;;;;;28.43;15.07;;;;;;;;;;5044336;28;20477;-76
2023/01/30 06:15:42;;;;;;;22.37;14.67;;;;;;;;;;5046491;28;20036;-76
2023/01/30 06:18:08;;;;;;;24.57;14.33;;;;;;;;;;5042927;28;20083;-76
2023/01/30 06:20:34;;;;;;;26.37;14.63;;;;;;;;;;5044619;28;20470;-75
2023/01/30 06:23:02;;;;;;;24.53;14.17;;;;;;;;;;5043311;28;20045;-76
2023/01/30 06:25:28;;;;;;;23.13;14.07;;;;;;;;;;5042592;28;20045;-76
2023/01/30 06:27:56;;;;;;;25.70;14.37;;;;;;;;;;5044114;28;20857;-76
2023/01/30 06:30:22;;;;;;;24.10;14.13;;;;;;;;;;5044856;28;20397;-76
2023/01/30 06:32:51;;;;;;;25.00;12.90;;;;;;;;;;5045773;28;20133;-76
2023/01/30 06:35:20;;;;;;;22.90;13.93;;;;;;;;;;5047605;28;20658;-75
2023/01/30 06:37:46;;;;;;;23.60;13.37;;;;;;;;;;5043267;28;20025;-77
2023/01/30 06:40:14;;;;;;;23.63;13.97;;;;;;;;;;5029043;28;20454;-76
2023/01/30 06:42:50;;;;;;;24.00;14.20;;;;;;;;;;5045735;28;20022;-76
2023/01/30 06:45:17;;;;;;;21.37;13.27;;;;;;;;;;5028249;28;20446;-76
2023/01/30 06:47:47;;;;;;;19.17;10.87;;;;;;;;;;5026394;28;20093;-75
2023/01/30 06:50:13;;;;;;;20.53;13.57;;;;;;;;;;5048637;28;20032;-76
2023/01/30 06:52:40;;;;;;;21.97;11.90;;;;;;;;;;5044140;28;20030;-75
2023/01/30 06:55:07;;;;;;;20.87;11.97;;;;;;;;;;5027164;28;20087;-76
2023/01/30 06:57:33;;;;;;;20.00;11.60;;;;;;;;;;5028146;28;20037;-75
2023/01/30 07:00:06;;;;;;;19.13;12.60;;;;;;;;;;5026451;28;20092;-75
2023/01/30 07:02:34;;;;;;;20.00;11.97;;;;;;;;;;5045439;28;20030;-76
2023/01/30 07:05:09;;;;;;;25.47;13.77;;;;;;;;;;5042292;28;21663;-76
2023/01/30 07:07:39;;;;;;;23.87;13.57;;;;;;;;;;5030418;28;20033;-75
2023/01/30 07:10:15;;;;;;;20.33;12.90;;;;;;;;;;5024804;28;20049;-76
2023/01/30 07:12:41;;;;;;;22.93;11.60;;;;;;;;;;5043797;28;20492;-77
2023/01/30 07:15:25;;;;;;;24.93;14.00;;;;;;;;;;5027229;28;20029;-77
2023/01/30 07:17:51;;;;;;;25.27;14.93;;;;;;;;;;5040531;28;20029;-77
2023/01/30 07:20:55;;;;;;;29.33;15.60;;;;;;;;;;5026149;28;20136;-77
2023/01/30 07:23:21;;;;;;;22.80;14.63;;;;;;;;;;5038773;28;20117;-78
2023/01/30 07:25:47;;;;;;;31.63;15.70;;;;;;;;;;5047190;28;20068;-77
2023/01/30 07:28:13;;;;;;;26.13;15.73;;;;;;;;;;5046575;28;20034;-77
2023/01/30 07:30:39;;;;;;;28.03;15.53;;;;;;;;;;5041455;28;20033;-77
2023/01/30 07:33:05;;;;;;;26.17;15.93;;;;;;;;;;5042006;28;20022;-77
2023/01/30 07:35:33;;;;;;;29.60;14.73;;;;;;;;;;5043491;28;20021;-77
2023/01/30 07:37:59;;;;;;;27.27;16.00;;;;;;;;;;5030270;28;20042;-76
2023/01/30 07:40:25;;;;;;;25.10;15.70;;;;;;;;;;5028465;28;20813;-77
2023/01/30 07:42:57;;;;;;;24.23;15.00;;;;;;;;;;5027044;28;20048;-77
2023/01/30 07:45:24;;;;;;;22.27;13.45;;;;;;;;;;5034131;28;20065;-79
2023/01/30 07:47:50;;;;;;;23.60;15.00;;;;;;;;;;5034798;28;20473;-79
2023/01/30 07:50:16;;;;;;;25.77;14.20;;;;;;;;;;5044579;28;20049;-76
2023/01/30 07:52:42;;;;;;;29.93;14.67;;;;;;;;;;5041322;28;20033;-77
2023/01/30 07:55:08;;;;;;;20.03;13.57;;;;;;;;;;5041980;28;21798;-77
2023/01/30 07:57:34;;;;;;;20.00;13.50;;;;;;;;;;5027128;28;20021;-77
2023/01/30 08:00:00;;;;;;;23.53;13.17;;;;;;;;;;5024912;28;20041;-77
2023/01/30 08:02:26;;;;;;;20.80;11.87;;;;;;;;;;5042491;28;20049;-77
2023/01/30 08:04:52;;;;;;;20.17;13.43;;;;;;;;;;5041338;28;20034;-76
2023/01/30 08:07:18;;;;;;;18.87;12.03;;;;;;;;;;5042255;28;20116;-77
2023/01/30 08:09:44;;;;;;;22.60;12.10;;;;;;;;;;5025384;28;20021;-77
2023/01/30 08:12:10;;;;;;;17.17;11.57;;;;;;;;;;5038872;28;20047;-76
2023/01/30 08:14:36;;;;;;;18.07;12.07;;;;;;;;;;5027684;28;20044;-76
2023/01/30 08:17:02;;;;;;;17.23;10.43;;;;;;;;;;5040993;28;20030;-76
2023/01/30 08:19:28;;;;;;;18.30;11.37;;;;;;;;;;5041692;28;20130;-77
2023/01/30 08:21:54;;;;;;;18.47;11.30;;;;;;;;;;5026052;28;20481;-76
2023/01/30 08:24:20;;;;;;;23.87;12.30;;;;;;;;;;5024274;28;20037;-77
2023/01/30 08:26:48;;;;;;;18.70;12.03;;;;;;;;;;5025739;28;20030;-77
2023/01/30 08:29:14;;;;;;;18.23;12.57;;;;;;;;;;5040081;28;20056;-76
2023/01/30 08:31:42;;;;;;;19.67;13.17;;;;;;;;;;5043058;28;20033;-77
2023/01/30 08:34:08;;;;;;;19.63;13.97;;;;;;;;;;5024785;28;20036;-76
2023/01/30 08:36:34;;;;;;;23.77;12.77;;;;;;;;;;5040418;28;20041;-76
2023/01/30 08:39:00;;;;;;;22.80;13.00;;;;;;;;;;5043215;28;20093;-77
2023/01/30 08:41:27;;;;;;;21.30;12.47;;;;;;;;;;5042374;28;20029;-77
2023/01/30 08:43:53;;;;;;;20.63;12.27;;;;;;;;;;5049467;28;20041;-77
2023/01/30 08:46:22;;;;;;;25.60;14.30;;;;;;;;;;5052000;28;20072;-76
2023/01/30 08:48:50;;;;;;;18.53;11.60;;;;;;;;;;5047884;28;20032;-77
2023/01/30 08:51:16;;;;;;;22.83;12.10;;;;;;;;;;5039311;28;20021;-77
2023/01/30 08:53:42;;;;;;;28.90;12.00;;;;;;;;;;5034203;28;20180;-77
2023/01/30 08:56:08;;;;;;;30.73;12.13;;;;;;;;;;5034703;28;20319;-77
2023/01/30 08:58:34;;;;;;;20.30;11.67;;;;;;;;;;5035866;28;20025;-77
2023/01/30 09:01:06;;;;;;;20.40;11.03;;;;;;;;;;5051708;28;20048;-77
2023/01/30 09:03:33;;;;;;;21.43;10.70;;;;;;;;;;5034884;28;20033;-77
2023/01/30 09:05:59;;;;;;;20.13;10.47;;;;;;;;;;5038796;28;20588;-77
2023/01/30 09:08:25;;;;;;;21.43;11.10;;;;;;;;;;5034140;28;20091;-77
2023/01/30 09:10:50;;;;;;;17.30;9.27;;;;;;;;;;5033922;28;20057;-76
2023/01/30 09:13:16;;;;;;;18.27;8.50;;;;;;;;;;5037415;28;20486;-77
2023/01/30 09:15:44;;;;;;;21.00;6.27;;;;;;;;;;5038372;28;20034;-76
2023/01/30 09:18:12;;;;;;;15.60;5.93;;;;;;;;;;5070087;28;20029;-77
2023/01/30 09:20:38;;;;;;;16.67;5.43;;;;;;;;;;5038653;28;20064;-77
2023/01/30 09:23:04;;;;;;;18.83;5.60;;;;;;;;;;5054561;28;20033;-77
2023/01/30 09:25:36;;;;;;;16.27;5.50;;;;;;;;;;5037567;28;20346;-76
2023/01/30 09:28:05;;;;;;;24.83;5.47;;;;;;;;;;5054230;28;20042;-77
2023/01/30 09:30:31;;;;;;;18.60;4.67;;;;;;;;;;5037192;28;20052;-77
2023/01/30 09:32:57;;;;;;;20.30;4.63;;;;;;;;;;5037556;28;20417;-77
2023/01/30 09:35:27;;;;;;;11.10;3.17;;;;;;;;;;5037339;28;20037;-77
2023/01/30 09:37:54;;;;;;;25.33;5.03;;;;;;;;;;5040145;28;20029;-77
2023/01/30 09:40:21;;;;;;;17.57;3.83;;;;;;;;;;5039331;28;20032;-77
2023/01/30 09:43:06;;;;;;;21.57;4.77;;;;;;;;;;5042137;28;20043;-77
2023/01/30 09:45:32;;;;;;;15.50;3.90;;;;;;;;;;5025454;28;20044;-77
2023/01/30 09:48:19;;;;;;;22.87;3.87;;;;;;;;;;5068881;28;20363;-76
2023/01/30 09:50:52;;;;;;;12.37;3.50;;;;;;;;;;5038838;28;20025;-77
2023/01/30 09:53:42;;;;;;;23.13;4.73;;;;;;;;;;5037131;28;20025;-77
2023/01/30 09:56:08;;;;;;;21.30;3.63;;;;;;;;;;5036452;28;20047;-77
2023/01/30 09:58:57;;;;;;;18.60;3.87;;;;;;;;;;5048608;28;20029;-77
2023/01/30 10:01:23;;;;;;;17.77;4.40;;;;;;;;;;5031669;28;20072;-77
2023/01/30 10:03:57;;;;;;;19.57;3.10;;;;;;;;;;5049167;28;20044;-77
2023/01/30 10:06:23;;;;;;;19.33;4.03;;;;;;;;;;5057236;28;20409;-77
2023/01/30 10:08:58;;;;;;;17.27;3.03;;;;;;;;;;5053791;28;20116;-77
2023/01/30 10:11:33;;;;;;;18.67;3.60;;;;;;;;;;5036736;28;20056;-77
2023/01/30 10:13:59;;;;;;;21.20;5.17;;;;;;;;;;5036778;28;20104;-77
2023/01/30 10:16:48;;;;;;;17.63;3.80;;;;;;;;;;5036905;28;20382;-77
2023/01/30 10:19:14;;;;;;;20.63;3.30;;;;;;;;;;5033113;28;20339;-76
2023/01/30 10:21:43;;;;;;;16.63;3.80;;;;;;;;;;5028732;28;20468;-77
2023/01/30 10:24:09;;;;;;;18.90;4.63;;;;;;;;;;5044066;28;20026;-76
2023/01/30 10:26:36;;;;;;;12.93;3.43;;;;;;;;;;5042164;28;20029;-76
2023/01/30 10:29:04;;;;;;;22.23;4.10;;;;;;;;;;5044028;28;20446;-77
2023/01/30 10:31:35;;;;;;;14.07;3.43;;;;;;;;;;5029319;28;20029;-76
2023/01/30 10:34:05;;;;;;;18.40;3.37;;;;;;;;;;5043143;28;20063;-76
2023/01/30 10:36:43;;;;;;;17.50;3.50;;;;;;;;;;5044223;28;20041;-76
2023/01/30 10:39:18;;;;;;;15.33;3.27;;;;;;;;;;5044665;28;20470;-75
2023/01/30 10:41:50;;;;;;;12.90;3.07;;;;;;;;;;5044181;28;20104;-76
2023/01/30 10:44:17;;;;;;;;;;;;;;;;;;5029708;28;21794;-77
2023/01/30 10:46:43;;;;;;;20.67;4.03;;;;;;;;;;5029768;28;19917;-76
2023/01/30 10:49:37;;;;;;;12.30;2.77;;;8.00;99.90;;;;;;5027323;28;20117;-77
2023/01/30 10:52:13;;;;;;;22.23;3.33;;;;;;;;;;5042229;28;20346;-77
2023/01/30 10:54:53;;;;;;;14.97;3.17;;;;;;;;;;5044268;28;20036;-77
2023/01/30 10:57:34;;;;;;;22.23;3.53;;;;;;;;;;5029521;28;20108;-77
2023/01/30 11:00:04;;;;;;;17.17;3.63;;;;;;;;;;5045305;28;20034;-76
2023/01/30 11:02:33;;;;;;;19.57;3.33;;;;;;;;;;5046142;28;20125;-77
2023/01/30 11:05:00;;;;;;;17.90;3.60;;;;;;;;;;5041945;28;21808;-77
2023/01/30 11:07:29;;;;;;;17.70;2.53;;;;;;;;;;5041228;28;20108;-76
2023/01/30 11:09:57;;;;;;;16.47;3.10;;;;;;;;;;5044182;28;20029;-77
2023/01/30 11:12:23;;;;;;;22.03;3.33;;;;;;;;;;5044347;28;20022;-76
2023/01/30 11:14:59;;;;;;;17.30;3.27;;;;;;;;;;5029904;28;20079;-76
2023/01/30 11:17:30;;;;;;;25.50;3.63;;;;;;;;;;5043255;28;20052;-76
2023/01/30 11:19:57;;;;;;;15.50;2.80;;;;;;;;;;5047698;28;20366;-77
2023/01/30 11:22:29;;;;;;;19.13;3.80;;;;;;;;;;5041241;28;20037;-76
2023/01/30 11:25:03;;;;;;;18.03;3.13;;;;;;;;;;5030485;28;20867;-77
2023/01/30 11:27:31;;;;;;;14.27;2.57;;;;;;;;;;5026757;28;20120;-76
2023/01/30 11:30:03;;;;;;;10.53;3.03;;;;;;;;;;5041559;28;20083;-76
2023/01/30 11:32:29;;;;;;;14.63;3.03;;;;;;;;;;5029999;28;20488;-76
2023/01/30 11:35:14;;;;;;;18.77;3.53;;;;;;;;;;5028355;28;20112;-76
2023/01/30 11:37:41;;;;;;;17.37;3.00;;;;;;;;;;5041553;28;20048;-76
2023/01/30 11:40:19;;;;;;;18.03;2.53;;;;;;;;;;5041952;28;20029;-76
2023/01/30 11:42:50;;;;;;;16.60;3.37;;;;;;;;;;5044114;28;20060;-76
2023/01/30 11:45:20;;;;;;;18.70;3.03;;;;;;;;;;5043829;28;20033;-76
2023/01/30 11:47:50;;;;;;;21.13;3.20;;;;;;;;;;5041362;28;20025;-77
2023/01/30 11:50:18;;;;;;;19.90;2.90;;;;;;;;;;5040023;28;20033;-76
2023/01/30 11:52:48;;;;;;;17.33;2.57;;;;;;;;;;5041921;28;20033;-76
2023/01/30 11:55:15;;;;;;;17.80;2.77;;;;;;;;;;5041865;28;20051;-76
2023/01/30 11:57:50;;;;;;;12.70;2.77;;;;;;;;;;5043034;28;20060;-76
2023/01/30 12:00:24;;;;;;;22.17;3.40;;;;;;;;;;5025916;28;20072;-76
2023/01/30 12:02:52;;;;;;;14.93;3.10;;;;;;;;;;5044395;28;20038;-77
2023/01/30 12:05:23;;;;;;;25.23;3.97;;;;;;;;;;5041740;28;20091;-77
2023/01/30 12:07:50;;;;;;;15.63;3.03;;;;;;;;;;5029649;28;20622;-76
2023/01/30 12:10:19;;;;;;;18.63;3.93;;;;;;;;;;5044837;28;20297;-76
2023/01/30 12:12:48;;;;;;;19.00;3.30;;;;;;;;;;5024017;28;20045;-76
2023/01/30 12:15:14;;;;;;;17.17;2.87;;;;;;;;;;5024535;28;20040;-76
2023/01/30 12:17:48;;;;;;;13.00;2.87;;;;;;;;;;5041626;28;20029;-76
2023/01/30 12:20:35;;;;;;;20.57;2.83;;;;;;;;;;5041240;28;20087;-76
2023/01/30 12:23:01;;;;;;;26.33;3.37;;;;;;;;;;5028711;28;20025;-75
2023/01/30 12:25:34;;;;;;;14.20;2.77;;;;;;;;;;5041594;28;20512;-76
2023/01/30 12:28:04;;;;;;;15.97;2.60;;;;;;;;;;5027151;28;20045;-76
2023/01/30 12:30:33;;;;;;;14.87;2.53;;;;;;;;;;5043281;28;20080;-76
2023/01/30 12:33:00;;;;;;;22.30;3.57;;;;;;;;;;5040479;28;20037;-76
2023/01/30 12:35:30;;;;;;;16.60;2.60;;;;;;;;;;5041126;28;20034;-76
2023/01/30 12:37:56;;;;;;;13.47;3.13;;;;;;;;;;5041477;28;20655;-76
2023/01/30 12:40:55;;;;;;;17.53;2.90;;;;;;;;;;5043444;28;20049;-76
2023/01/30 12:43:24;;;;;;;18.13;3.40;;;;;;;;;;5012917;28;20054;-76
2023/01/30 12:45:57;;;;;;;14.90;2.43;;;;;;;;;;5039397;28;20037;-76
2023/01/30 12:48:42;;;;;;;17.23;3.43;;;;;;;;;;5028779;28;20990;-76
2023/01/30 12:51:48;;;;;;;19.73;3.47;;;;;;;;;;5046066;28;20044;-75
2023/01/30 12:54:32;;;;;;;16.50;3.13;;;;;;;;;;5011737;28;20033;-76
2023/01/30 12:57:01;;;;;;;13.07;2.90;;;;;;;;;;5008829;28;20052;-76
2023/01/30 12:59:36;;;;;;;14.13;2.63;;;;;;;;;;5022161;28;20068;-76
2023/01/30 13:02:20;;;;;;;17.20;3.60;;;;;;;;;;5048585;28;20067;-76
2023/01/30 13:05:00;;;;;;;15.90;2.97;;;;;;;;;;5043926;28;20037;-76
2023/01/30 13:07:25;;;;;;;22.23;3.77;;;;;;;;;;5043913;28;20362;-76
2023/01/30 13:09:58;;;;;;;24.30;3.57;;;;;;;;;;5033301;28;20037;-76
2023/01/30 13:12:30;;;;;;;19.60;3.70;;;;;;;;;;5045177;28;20034;-76
2023/01/30 13:15:08;;;;;;;20.08;4.40;;;;;;;;;;5029776;28;20026;-76
2023/01/30 13:17:49;;;;;;;19.13;2.90;;;;;;;;;;5031612;28;20116;-75
2023/01/30 13:20:34;;;;;;;20.27;3.07;;;;;;;;;;5047023;28;20056;-75
2023/01/30 13:23:11;;;;;;;18.50;2.47;;;;;;;;;;5047792;28;20068;-76
2023/01/30 13:26:01;;;;;;;22.83;3.47;;;;;;;;;;5048258;28;20056;-76
2023/01/30 13:28:47;;;;;;;16.50;3.50;;;;;;;;;;5046340;28;20088;-76
2023/01/30 13:31:18;;;;;;;13.97;3.00;;;;;;;;;;5030657;28;20044;-76
2023/01/30 13:33:45;;;;;;;21.37;3.93;;;;;;;;;;5048348;28;20048;-76
2023/01/30 13:36:16;;;;;;;14.10;2.47;;;;;;;;;;5044767;28;20116;-76
2023/01/30 13:38:57;;;;;;;17.43;3.40;;;;;;;;;;5028624;28;20037;-76
2023/01/30 13:41:24;;;;;;;14.70;2.63;;;;;;;;;;5029137;28;20032;-76
2023/01/30 13:43:52;;;;;;;26.13;3.03;;;;;;;;;;5045594;28;20064;-76
2023/01/30 13:46:22;;;;;;;24.57;3.33;;;;;;;;;;5042599;28;20025;-76
2023/01/30 13:48:51;;;;;;;18.07;3.23;;;;;;;;;;5029731;28;20033;-76
2023/01/30 13:51:41;;;;;;;20.47;2.43;;;;;;;;;;5045439;28;20064;-76
2023/01/30 13:54:16;;;;;;;24.87;3.53;;;;;;;;;;5044797;28;20033;-76
2023/01/30 13:56:53;;;;;;;15.20;3.30;;;;;;;;;;5043874;28;20362;-76
2023/01/30 13:59:32;;;;;;;16.53;3.33;;;;;;;;;;5027272;28;20049;-76
2023/01/30 14:02:01;;;;;;;21.60;2.70;;;;;;;;;;5044367;28;20875;-76
2023/01/30 14:04:30;;;;;;;21.00;3.03;;;;;;;;;;5043743;28;20963;-76
2023/01/30 14:07:08;;;;;;;22.53;3.97;;;;;;;;;;5044189;28;20093;-76
2023/01/30 14:09:34;;;;;;;17.10;2.40;;;;;;;;;;5042854;28;20393;-75
2023/01/30 14:12:02;;;;;;;22.47;3.83;;;;;;;;;;5027154;28;20155;-76
2023/01/30 14:14:30;;;;;;;15.20;3.93;;;;;;;;;;5041569;28;20029;-75
2023/01/30 14:16:58;;;;;;;20.30;4.30;;;;;;;;;;5044700;28;20092;-75
2023/01/30 14:19:24;;;;;;;20.73;3.80;;;;;;;;;;5029560;28;20025;-76
2023/01/30 14:22:17;;;;;;;15.60;3.23;;;;;;;;;;5046185;28;20107;-76
2023/01/30 14:24:43;;;;;;;22.53;2.97;;;;;;;;;;5041884;28;20034;-76
2023/01/30 14:27:23;;;;;;;19.43;3.00;;;;;;;;;;5045205;28;20048;-76
2023/01/30 14:29:49;;;;;;;20.60;2.93;;;;;;;;;;5041791;28;20033;-76
2023/01/30 14:32:15;;;;;;;24.20;3.57;;;;;;;;;;5027201;28;20955;-76
2023/01/30 14:34:44;;;;;;;14.63;2.70;;;;;;;;;;5041343;28;20087;-76
2023/01/30 14:37:32;;;;;;;20.03;3.63;;;;;;;;;;5043285;28;20026;-76
2023/01/30 14:39:59;;;;;;;18.60;3.53;;;;;;;;;;5043442;28;20037;-76